createdAt,value
2023-05-03T00:00:16.638Z,72.68
2023-05-03T00:05:39.674Z,72.89
2023-05-03T00:10:42.681Z,72.87
2023-05-03T00:15:45.611Z,72.76
2023-05-03T00:20:48.572Z,72.72
2023-05-03T00:25:57.449Z,72.98
2023-05-03T00:31:10.881Z,73.25
2023-05-03T00:36:15.389Z,73.08
2023-05-03T00:41:18.356Z,72.76
2023-05-03T00:46:21.434Z,72.71
2023-05-03T00:51:27.815Z,72.65
2023-05-03T00:56:33.004Z,72.75
2023-05-03T01:01:41.002Z,72.61
2023-05-03T01:06:52.621Z,72.74
2023-05-03T01:12:09.692Z,72.77
2023-05-03T01:17:14.618Z,72.71
2023-05-03T01:22:23.271Z,72.38
2023-05-03T01:27:26.233Z,72.45
2023-05-03T01:33:17.081Z,72.67
2023-05-03T01:38:22.144Z,72.85
2023-05-03T01:43:25.900Z,72.66
2023-05-03T01:48:28.834Z,72.84
2023-05-03T01:53:31.892Z,72.69
2023-05-03T01:58:34.876Z,72.54
2023-05-03T02:03:37.830Z,72.27
2023-05-03T02:08:40.880Z,72.33
2023-05-03T02:13:43.810Z,72.45
2023-05-03T02:18:49.049Z,72.72
2023-05-03T02:23:52.265Z,73.08
2023-05-03T02:28:56.983Z,73.63
2023-05-03T02:34:00.036Z,73.48
2023-05-03T02:39:03.324Z,73.35
2023-05-03T02:44:06.321Z,73.39
2023-05-03T02:49:09.991Z,73.12
2023-05-03T02:54:12.948Z,73.02
2023-05-03T02:59:15.969Z,72.76
2023-05-03T03:04:18.937Z,72.33
2023-05-03T03:09:21.923Z,72.59
2023-05-03T03:14:24.865Z,72.48
2023-05-03T03:19:27.861Z,72.54
2023-05-03T03:24:30.789Z,72.55
2023-05-03T03:29:36.033Z,72.59
2023-05-03T03:34:39.997Z,72.67
2023-05-03T03:39:42.979Z,72.83
2023-05-03T03:44:45.939Z,72.57
2023-05-03T03:49:48.861Z,72.37
2023-05-03T03:54:52.337Z,72.06
2023-05-03T03:59:55.151Z,72.00
2023-05-03T04:04:58.096Z,72.15
2023-05-03T04:10:01.429Z,72.00
2023-05-03T04:15:05.192Z,72.04
2023-05-03T04:20:13.913Z,72.06
2023-05-03T04:25:19.685Z,71.62
2023-05-03T04:30:22.774Z,71.52
2023-05-03T04:35:25.714Z,71.50
2023-05-03T04:40:29.301Z,71.44
2023-05-03T04:45:32.221Z,71.01
2023-05-03T04:50:35.209Z,70.79
2023-05-03T04:55:38.170Z,70.56
2023-05-03T05:00:45.633Z,69.94
2023-05-03T05:05:48.632Z,69.58
2023-05-03T05:10:51.624Z,69.39
2023-05-03T05:15:54.578Z,69.40
2023-05-03T05:20:57.518Z,69.22
2023-05-03T05:26:00.935Z,68.73
2023-05-03T05:31:03.797Z,68.30
2023-05-03T05:36:07.012Z,67.81
2023-05-03T05:41:10.139Z,67.11
2023-05-03T05:46:13.110Z,66.90
2023-05-03T05:51:16.177Z,66.62
2023-05-03T05:56:19.523Z,66.24
2023-05-03T06:01:22.440Z,66.07
2023-05-03T06:06:25.548Z,66.28
2023-05-03T06:11:29.642Z,66.09
2023-05-03T06:16:32.603Z,66.02
2023-05-03T06:21:35.618Z,65.93
2023-05-03T06:26:38.640Z,65.77
2023-05-03T06:31:42.182Z,65.67
2023-05-03T06:36:45.129Z,65.53
2023-05-03T06:41:48.094Z,66.17
2023-05-03T06:46:51.671Z,65.85
2023-05-03T06:51:54.677Z,65.11
2023-05-03T06:56:57.634Z,64.77
2023-05-03T07:02:00.617Z,64.48
2023-05-03T07:07:04.858Z,64.10
2023-05-03T07:12:08.293Z,64.83
2023-05-03T07:17:11.314Z,64.17
2023-05-03T07:22:14.576Z,64.42
2023-05-03T07:27:19.059Z,63.95
2023-05-03T07:32:22.493Z,64.06
2023-05-03T07:37:27.046Z,62.82
2023-05-03T07:42:29.994Z,62.00
2023-05-03T07:47:34.520Z,61.92
2023-05-03T07:52:38.486Z,60.43
2023-05-03T07:57:41.429Z,59.34
2023-05-03T08:02:44.688Z,59.17
2023-05-03T08:07:47.662Z,58.76
2023-05-03T08:12:51.319Z,58.42
2023-05-03T08:17:54.272Z,58.19
2023-05-03T08:22:57.275Z,57.65
2023-05-03T08:28:00.292Z,56.78
2023-05-03T08:33:03.648Z,55.72
2023-05-03T08:38:06.501Z,55.37
2023-05-03T08:43:10.344Z,54.62
2023-05-03T08:48:14.774Z,53.14
2023-05-03T08:53:17.958Z,53.28
2023-05-03T08:58:21.344Z,52.24
2023-05-03T09:03:24.505Z,52.15
2023-05-03T09:08:31.516Z,51.96
2023-05-03T09:13:34.580Z,51.31
2023-05-03T09:18:37.698Z,51.72
2023-05-03T09:23:40.981Z,49.65
2023-05-03T09:28:44.228Z,49.34
2023-05-03T09:33:47.560Z,49.58
2023-05-03T09:38:51.592Z,49.07
2023-05-03T09:43:56.262Z,49.35
2023-05-03T09:49:02.189Z,50.01
2023-05-03T09:54:05.487Z,49.70
2023-05-03T09:59:10.411Z,48.82
2023-05-03T10:04:19.840Z,48.92
2023-05-03T10:09:31.962Z,48.17
2023-05-03T10:14:35.951Z,48.77
2023-05-03T10:19:51.797Z,48.46
2023-05-03T10:24:57.681Z,47.94
2023-05-03T10:30:00.780Z,48.09
2023-05-03T10:35:14.470Z,48.07
2023-05-03T10:40:19.152Z,48.42
2023-05-03T10:45:29.366Z,48.18
2023-05-03T10:50:32.314Z,48.44
2023-05-03T10:55:36.007Z,48.42
2023-05-03T11:00:44.156Z,48.65
2023-05-03T11:05:49.941Z,49.11
2023-05-03T11:11:01.099Z,48.87
2023-05-03T11:16:06.037Z,49.12
2023-05-03T11:21:11.157Z,48.12
2023-05-03T11:26:14.354Z,48.36
2023-05-03T11:31:17.352Z,47.71
2023-05-03T11:36:20.606Z,47.43
2023-05-03T11:41:23.563Z,47.78
2023-05-03T11:46:31.957Z,47.86
2023-05-03T11:51:35.148Z,46.73
2023-05-03T11:56:38.156Z,46.85
2023-05-03T12:01:41.986Z,46.83
2023-05-03T12:06:53.093Z,46.50
2023-05-03T12:11:58.960Z,46.89
2023-05-03T12:17:03.257Z,46.76
2023-05-03T12:22:25.933Z,47.38
2023-05-03T12:27:31.358Z,46.86
2023-05-03T12:32:38.897Z,47.52
2023-05-03T12:37:43.859Z,47.59
2023-05-03T12:42:46.986Z,47.40
2023-05-03T12:47:50.299Z,47.36
2023-05-03T12:52:53.774Z,46.89
2023-05-03T12:58:18.111Z,45.12
2023-05-03T13:03:22.079Z,46.02
2023-05-03T13:08:33.517Z,46.22
2023-05-03T13:13:37.246Z,45.35
2023-05-03T13:18:40.172Z,45.44
2023-05-03T13:23:43.141Z,43.44
2023-05-03T13:28:46.563Z,43.67
2023-05-03T13:33:49.611Z,44.32
2023-05-03T13:38:53.680Z,42.72
2023-05-03T13:43:56.751Z,42.70
2023-05-03T13:49:00.249Z,41.96
2023-05-03T13:54:06.210Z,42.90
2023-05-03T13:59:11.967Z,42.99
2023-05-03T14:04:14.982Z,42.51
2023-05-03T14:09:17.978Z,42.91
2023-05-03T14:14:20.994Z,43.44
2023-05-03T14:19:23.987Z,41.46
2023-05-03T14:24:27.123Z,41.78
2023-05-03T14:29:30.089Z,41.29
2023-05-03T14:34:33.101Z,39.98
2023-05-03T14:39:36.660Z,39.28
2023-05-03T14:44:39.609Z,38.09
2023-05-03T14:49:42.584Z,38.99
2023-05-03T14:54:45.587Z,38.43
2023-05-03T14:59:48.677Z,37.71
2023-05-03T15:04:52.637Z,37.32
2023-05-03T15:09:55.660Z,37.94
2023-05-03T15:14:59.255Z,37.97
2023-05-03T15:20:02.486Z,37.43
2023-05-03T15:25:06.254Z,38.38
2023-05-03T15:30:12.279Z,39.81
2023-05-03T15:35:15.430Z,40.21
2023-05-03T15:40:23.723Z,40.19
2023-05-03T15:45:28.540Z,39.94
2023-05-03T15:50:31.611Z,39.92
2023-05-03T15:55:34.621Z,39.85
2023-05-03T16:00:38.107Z,39.64
2023-05-03T16:05:40.970Z,39.63
2023-05-03T16:10:43.934Z,39.14
2023-05-03T16:15:47.405Z,39.68
2023-05-03T16:20:50.696Z,39.82
2023-05-03T16:25:53.738Z,40.04
2023-05-03T16:30:56.775Z,40.46
2023-05-03T16:35:59.738Z,40.04
2023-05-03T16:41:03.301Z,41.07
2023-05-03T16:46:07.412Z,40.78
2023-05-03T16:51:10.428Z,39.49
2023-05-03T16:56:13.404Z,39.23
2023-05-03T17:01:16.465Z,39.64
2023-05-03T17:06:19.865Z,39.74
2023-05-03T17:11:22.861Z,40.00
2023-05-03T17:16:26.445Z,40.28
2023-05-03T17:21:29.500Z,40.77
2023-05-03T17:26:32.764Z,40.59
2023-05-03T17:31:35.860Z,41.01
2023-05-03T17:36:38.847Z,41.45
2023-05-03T17:41:41.819Z,41.22
2023-05-03T17:46:44.880Z,41.27
2023-05-03T17:51:48.151Z,41.85
2023-05-03T17:56:51.161Z,42.51
2023-05-03T18:01:54.178Z,42.87
2023-05-03T18:06:57.150Z,42.84
2023-05-03T18:12:01.657Z,42.91
2023-05-03T18:17:04.620Z,43.53
2023-05-03T18:22:08.234Z,43.37
2023-05-03T18:27:15.195Z,43.47
2023-05-03T18:32:18.151Z,45.21
2023-05-03T18:37:24.487Z,45.37
2023-05-03T18:42:27.872Z,45.51
2023-05-03T18:47:31.221Z,47.17
2023-05-03T18:52:34.195Z,46.57
2023-05-03T18:57:38.241Z,45.08
2023-05-03T19:02:41.178Z,45.98
2023-05-03T19:07:50.078Z,46.14
2023-05-03T19:12:53.642Z,46.28
2023-05-03T19:17:56.946Z,47.65
2023-05-03T19:23:00.001Z,47.35
2023-05-03T19:28:05.242Z,47.33
2023-05-03T19:33:08.238Z,47.40
2023-05-03T19:38:11.210Z,48.44
2023-05-03T19:43:14.741Z,49.43
2023-05-03T19:48:18.319Z,49.71
2023-05-03T19:53:21.505Z,50.29
2023-05-03T19:58:25.429Z,51.44
2023-05-03T20:03:28.838Z,51.52
2023-05-03T20:08:32.612Z,51.56
2023-05-03T20:13:35.645Z,52.23
2023-05-03T20:18:39.247Z,52.23
2023-05-03T20:23:42.093Z,52.61
2023-05-03T20:28:45.001Z,52.93
2023-05-03T20:33:47.976Z,52.32
2023-05-03T20:38:51.052Z,52.71
2023-05-03T20:43:55.056Z,53.43
2023-05-03T20:48:58.210Z,53.90
2023-05-03T20:54:01.188Z,53.93
2023-05-03T20:59:05.368Z,54.46
2023-05-03T21:04:09.215Z,54.78
2023-05-03T21:09:12.514Z,55.20
2023-05-03T21:14:18.623Z,55.36
2023-05-03T21:19:22.043Z,55.53
2023-05-03T21:24:25.775Z,56.03
2023-05-03T21:29:29.082Z,56.41
2023-05-03T21:34:32.173Z,55.68
2023-05-03T21:39:35.168Z,55.15
2023-05-03T21:44:38.153Z,55.33
2023-05-03T21:49:41.130Z,56.08
2023-05-03T21:54:44.223Z,56.78
2023-05-03T21:59:47.505Z,56.99
2023-05-03T22:04:51.063Z,57.09
2023-05-03T22:09:53.994Z,57.08
2023-05-03T22:14:57.440Z,57.48
2023-05-03T22:20:00.411Z,57.57
2023-05-03T22:25:03.579Z,57.57
2023-05-03T22:30:09.096Z,57.31
2023-05-03T22:35:12.127Z,57.62
2023-05-03T22:40:15.159Z,56.75
2023-05-03T22:45:18.223Z,56.72
2023-05-03T22:50:21.350Z,57.20
2023-05-03T22:55:24.269Z,58.25
2023-05-03T23:00:27.221Z,58.45
2023-05-03T23:05:30.490Z,58.94
2023-05-03T23:10:33.959Z,58.91
2023-05-03T23:15:38.829Z,59.33
2023-05-03T23:20:41.803Z,59.39
2023-05-03T23:25:44.755Z,59.47
2023-05-03T23:30:48.038Z,59.64
2023-05-03T23:35:51.328Z,59.28
2023-05-03T23:40:54.277Z,58.99
2023-05-03T23:45:57.311Z,59.33
2023-05-03T23:51:00.294Z,59.52
2023-05-03T23:56:03.885Z,59.75
